createdAt,value
2022-08-22T00:00:13.825Z,3.60
2022-08-22T00:02:43.019Z,2.13
2022-08-22T00:03:18.627Z,4.10
2022-08-22T00:06:01.942Z,3.42
2022-08-22T00:08:32.635Z,3.58
2022-08-22T00:11:25.762Z,3.75
2022-08-22T00:14:05.021Z,3.97
2022-08-22T00:16:56.373Z,3.55
2022-08-22T00:19:46.448Z,4.03
2022-08-22T00:22:26.012Z,3.80
2022-08-22T00:25:25.802Z,4.43
2022-08-22T00:28:15.390Z,4.03
2022-08-22T00:30:58.477Z,4.00
2022-08-22T00:33:39.035Z,3.72
2022-08-22T00:36:28.956Z,4.28
2022-08-22T00:39:10.045Z,3.90
2022-08-22T00:42:10.771Z,3.40
2022-08-22T00:44:39.924Z,3.70
2022-08-22T00:47:31.352Z,3.42
2022-08-22T00:50:26.267Z,3.45
2022-08-22T00:53:17.652Z,3.38
2022-08-22T00:55:57.201Z,3.75
2022-08-22T00:59:11.996Z,3.67
2022-08-22T01:02:11.076Z,3.70
2022-08-22T01:07:43.457Z,3.53
2022-08-22T01:10:19.070Z,3.20
2022-08-22T01:13:07.416Z,3.53
2022-08-22T01:15:36.467Z,3.67
2022-08-22T01:18:05.837Z,3.65
2022-08-22T01:20:35.348Z,3.05
2022-08-22T01:23:22.312Z,3.20
2022-08-22T01:28:24.383Z,3.47
2022-08-22T01:31:10.552Z,3.33
2022-08-22T01:34:11.300Z,3.35
2022-08-22T01:36:51.796Z,3.42
2022-08-22T01:39:33.361Z,3.42
2022-08-22T01:42:34.685Z,2.85
2022-08-22T01:45:04.176Z,3.50
2022-08-22T01:47:43.021Z,3.60
2022-08-22T01:50:19.204Z,3.78
2022-08-22T01:53:01.897Z,4.07
2022-08-22T01:55:56.859Z,3.50
2022-08-22T01:58:26.948Z,3.70
2022-08-22T02:01:21.250Z,3.25
2022-08-22T02:03:53.649Z,3.42
2022-08-22T02:06:40.936Z,3.55
2022-08-22T02:09:21.712Z,3.58
2022-08-22T02:11:54.907Z,3.70
2022-08-22T02:14:33.542Z,3.33
2022-08-22T02:17:22.985Z,3.10
2022-08-22T02:20:17.989Z,3.35
2022-08-22T02:23:13.288Z,3.38
2022-08-22T02:25:52.650Z,2.90
2022-08-22T02:28:56.887Z,3.40
2022-08-22T02:31:26.871Z,3.17
2022-08-22T02:33:59.060Z,3.10
2022-08-22T02:36:32.497Z,3.00
2022-08-22T02:39:16.757Z,3.17
2022-08-22T02:42:15.072Z,2.92
2022-08-22T02:44:52.783Z,2.65
2022-08-22T02:47:49.693Z,2.88
2022-08-22T02:50:26.209Z,3.20
2022-08-22T02:55:32.323Z,2.70
2022-08-22T02:58:15.809Z,3.38
2022-08-22T03:00:51.261Z,3.55
2022-08-22T03:03:25.860Z,3.08
2022-08-22T03:06:04.324Z,3.25
2022-08-22T03:09:00.433Z,2.90
2022-08-22T03:11:32.053Z,2.90
2022-08-22T03:14:09.569Z,3.25
2022-08-22T03:16:47.795Z,2.65
2022-08-22T03:19:22.319Z,3.20
2022-08-22T03:21:58.098Z,2.80
2022-08-22T03:24:33.294Z,3.05
2022-08-22T03:27:02.391Z,3.00
2022-08-22T03:29:35.924Z,3.05
2022-08-22T03:32:11.812Z,3.30
2022-08-22T03:34:56.024Z,2.80
2022-08-22T03:37:37.771Z,2.45
2022-08-22T03:40:22.561Z,2.78
2022-08-22T03:43:20.017Z,2.90
2022-08-22T03:46:14.565Z,3.22
2022-08-22T03:48:56.956Z,2.85
2022-08-22T03:51:46.808Z,2.58
2022-08-22T03:54:34.893Z,3.05
2022-08-22T03:57:06.401Z,2.85
2022-08-22T03:59:57.215Z,3.30
2022-08-22T04:02:53.369Z,3.25
2022-08-22T04:05:44.757Z,2.33
2022-08-22T04:08:14.076Z,2.58
2022-08-22T04:11:21.551Z,2.55
2022-08-22T04:14:15.930Z,2.80
2022-08-22T04:17:04.245Z,2.60
2022-08-22T04:19:46.543Z,2.97
2022-08-22T04:22:34.801Z,2.63
2022-08-22T04:25:23.328Z,2.80
2022-08-22T04:28:15.938Z,2.90
2022-08-22T04:30:46.548Z,2.92
2022-08-22T04:33:28.372Z,2.97
2022-08-22T04:36:01.471Z,3.00
2022-08-22T04:38:37.130Z,2.97
2022-08-22T04:41:13.656Z,3.20
2022-08-22T04:46:40.558Z,3.78
2022-08-22T04:49:25.811Z,2.45
2022-08-22T04:52:02.904Z,2.85
2022-08-22T04:54:29.244Z,2.70
2022-08-22T04:57:22.605Z,3.30
2022-08-22T04:59:49.732Z,3.10
2022-08-22T05:02:24.493Z,3.03
2022-08-22T05:04:59.493Z,3.05
2022-08-22T05:07:35.907Z,3.10
2022-08-22T05:10:11.621Z,3.25
2022-08-22T05:12:49.473Z,3.15
2022-08-22T05:15:26.780Z,3.20
2022-08-22T05:17:58.651Z,3.00
2022-08-22T05:20:28.773Z,3.10
2022-08-22T05:23:02.861Z,3.90
2022-08-22T05:25:36.320Z,3.40
2022-08-22T05:28:14.845Z,3.20
2022-08-22T05:30:45.904Z,3.53
2022-08-22T05:33:26.637Z,3.25
2022-08-22T05:35:59.075Z,3.35
2022-08-22T05:38:32.235Z,3.80
2022-08-22T05:41:09.228Z,3.83
2022-08-22T05:43:40.637Z,3.92
2022-08-22T05:46:16.480Z,4.30
2022-08-22T05:48:51.617Z,3.63
2022-08-22T05:51:25.283Z,3.95
2022-08-22T05:54:05.983Z,3.58
2022-08-22T05:56:41.577Z,4.40
2022-08-22T05:59:31.136Z,4.73
2022-08-22T06:02:09.849Z,4.55
2022-08-22T06:04:45.501Z,4.20
2022-08-22T06:07:20.933Z,4.23
2022-08-22T06:09:47.292Z,4.10
2022-08-22T06:12:22.250Z,4.40
2022-08-22T06:15:11.976Z,4.45
2022-08-22T06:17:47.911Z,4.40
2022-08-22T06:20:20.170Z,4.72
2022-08-22T06:22:53.617Z,4.32
2022-08-22T06:25:26.243Z,4.60
2022-08-22T06:27:54.398Z,4.00
2022-08-22T06:30:23.828Z,4.03
2022-08-22T06:32:59.951Z,4.63
2022-08-22T06:35:55.505Z,4.20
2022-08-22T06:38:28.346Z,3.80
2022-08-22T06:40:58.059Z,3.88
2022-08-22T06:43:25.517Z,3.97
2022-08-22T06:45:53.244Z,4.00
2022-08-22T06:48:23.608Z,3.65
2022-08-22T06:50:56.402Z,3.55
2022-08-22T06:53:47.817Z,3.95
2022-08-22T06:56:23.215Z,3.35
2022-08-22T06:58:54.457Z,3.50
2022-08-22T07:01:25.251Z,3.60
2022-08-22T07:03:55.221Z,3.58
2022-08-22T07:06:31.480Z,3.63
2022-08-22T07:08:58.324Z,3.35
2022-08-22T07:11:39.629Z,3.50
2022-08-22T07:14:13.289Z,3.25
2022-08-22T07:16:49.764Z,2.95
2022-08-22T07:21:54.927Z,2.92
2022-08-22T07:24:27.772Z,9.50
2022-08-22T07:27:06.548Z,6.20
2022-08-22T07:29:46.871Z,3.13
2022-08-22T07:32:28.893Z,3.38
2022-08-22T07:35:09.107Z,2.90
2022-08-22T07:37:57.826Z,2.83
2022-08-22T07:40:31.386Z,2.95
2022-08-22T07:43:12.826Z,2.58
2022-08-22T07:46:21.746Z,2.95
2022-08-22T07:49:08.693Z,2.88
2022-08-22T07:51:43.428Z,2.50
2022-08-22T07:54:13.986Z,3.00
2022-08-22T07:56:47.544Z,2.75
2022-08-22T07:59:18.034Z,3.15
2022-08-22T08:01:48.618Z,2.95
2022-08-22T08:04:19.521Z,2.83
2022-08-22T08:06:50.698Z,2.67
2022-08-22T08:09:19.634Z,2.90
2022-08-22T08:11:49.185Z,2.47
2022-08-22T08:14:19.905Z,2.40
2022-08-22T08:17:06.000Z,2.60
2022-08-22T08:19:35.900Z,2.60
2022-08-22T08:22:02.821Z,2.80
2022-08-22T08:24:41.357Z,2.60
2022-08-22T08:27:40.917Z,2.60
2022-08-22T08:30:21.230Z,3.08
2022-08-22T08:33:24.289Z,3.17
2022-08-22T08:36:02.756Z,2.88
2022-08-22T08:38:36.161Z,2.63
2022-08-22T08:41:26.512Z,3.17
2022-08-22T08:44:08.388Z,3.20
2022-08-22T08:46:42.665Z,3.08
2022-08-22T08:49:30.967Z,3.17
2022-08-22T08:52:37.065Z,3.03
2022-08-22T08:58:31.876Z,3.20
2022-08-22T09:01:12.593Z,2.75
2022-08-22T09:04:01.238Z,3.10
2022-08-22T09:06:50.700Z,3.45
2022-08-22T09:09:26.087Z,3.17
2022-08-22T09:12:16.406Z,2.95
2022-08-22T09:15:11.941Z,3.20
2022-08-22T09:17:56.209Z,3.60
2022-08-22T09:20:46.226Z,3.40
2022-08-22T09:23:43.698Z,2.70
2022-08-22T09:29:00.028Z,3.25
2022-08-22T09:31:48.371Z,3.58
2022-08-22T09:34:39.776Z,3.00
2022-08-22T09:37:25.283Z,2.97
2022-08-22T09:40:05.602Z,3.20
2022-08-22T09:40:16.157Z,2.78
2022-08-22T09:42:45.044Z,3.05
2022-08-22T09:45:31.152Z,2.80
2022-08-22T09:48:21.275Z,2.78
2022-08-22T09:51:28.324Z,2.90
2022-08-22T09:54:02.624Z,2.55
2022-08-22T09:56:49.438Z,2.45
2022-08-22T09:59:41.138Z,2.67
2022-08-22T10:02:32.257Z,2.80
2022-08-22T10:05:12.588Z,2.85
2022-08-22T10:08:05.182Z,3.08
2022-08-22T10:10:51.358Z,3.05
2022-08-22T10:13:36.356Z,2.50
2022-08-22T10:16:26.489Z,2.50
2022-08-22T10:19:12.334Z,2.60
2022-08-22T10:22:12.945Z,3.10
2022-08-22T10:25:16.220Z,3.35
2022-08-22T10:27:56.699Z,2.75
2022-08-22T10:30:29.516Z,2.72
2022-08-22T10:33:12.105Z,3.00
2022-08-22T10:36:18.403Z,2.67
2022-08-22T10:38:48.244Z,2.70
2022-08-22T10:41:26.637Z,2.65
2022-08-22T10:44:03.947Z,2.70
2022-08-22T10:46:46.190Z,2.22
2022-08-22T10:49:19.664Z,2.53
2022-08-22T10:52:14.870Z,2.20
2022-08-22T10:55:09.969Z,2.42
2022-08-22T10:57:54.845Z,2.60
2022-08-22T11:00:50.186Z,2.92
2022-08-22T11:03:24.945Z,2.85
2022-08-22T11:05:54.826Z,2.75
2022-08-22T11:08:51.052Z,3.13
2022-08-22T11:11:26.304Z,3.13
2022-08-22T11:14:30.058Z,3.00
2022-08-22T11:17:02.782Z,3.20
2022-08-22T11:19:58.343Z,3.08
2022-08-22T11:22:29.190Z,2.75
2022-08-22T11:25:29.207Z,2.83
2022-08-22T11:28:22.362Z,2.50
2022-08-22T11:31:14.145Z,2.70
2022-08-22T11:34:12.728Z,3.30
2022-08-22T11:36:47.043Z,2.92
2022-08-22T11:39:34.740Z,3.17
2022-08-22T11:42:15.370Z,3.30
2022-08-22T11:44:58.868Z,3.20
2022-08-22T11:47:31.118Z,2.90
2022-08-22T11:50:18.379Z,2.55
2022-08-22T11:52:44.783Z,2.50
2022-08-22T11:55:39.885Z,2.80
2022-08-22T11:58:28.965Z,2.65
2022-08-22T12:01:01.880Z,2.88
2022-08-22T12:03:55.848Z,2.60
2022-08-22T12:06:38.269Z,2.92
2022-08-22T12:09:20.507Z,2.90
2022-08-22T12:12:20.200Z,2.75
2022-08-22T12:15:11.405Z,2.80
2022-08-22T12:17:55.877Z,2.30
2022-08-22T12:20:46.834Z,2.80
2022-08-22T12:23:54.518Z,2.92
2022-08-22T12:26:27.196Z,2.53
2022-08-22T12:29:16.987Z,2.38
2022-08-22T12:31:58.741Z,2.30
2022-08-22T12:34:32.433Z,2.63
2022-08-22T12:37:16.538Z,2.72
2022-08-22T12:40:19.170Z,3.00
2022-08-22T12:42:57.676Z,2.28
2022-08-22T12:45:43.416Z,2.45
2022-08-22T12:48:42.557Z,2.60
2022-08-22T12:51:29.408Z,2.85
2022-08-22T12:54:23.630Z,3.08
2022-08-22T12:57:23.952Z,2.63
2022-08-22T12:59:58.140Z,2.80
2022-08-22T13:02:30.829Z,3.05
2022-08-22T13:05:10.847Z,2.40
2022-08-22T13:07:40.664Z,2.83
2022-08-22T13:10:14.529Z,2.78
2022-08-22T13:12:52.501Z,2.78
2022-08-22T13:15:18.835Z,2.92
2022-08-22T13:17:46.300Z,2.83
2022-08-22T13:20:34.578Z,2.92
2022-08-22T13:23:12.527Z,2.70
2022-08-22T13:26:07.454Z,2.78
2022-08-22T13:28:41.953Z,2.60
2022-08-22T13:31:09.911Z,3.53
2022-08-22T13:33:46.925Z,2.88
2022-08-22T13:36:22.090Z,3.00
2022-08-22T13:39:22.390Z,2.63
2022-08-22T13:41:52.833Z,2.40
2022-08-22T13:44:24.664Z,3.03
2022-08-22T13:47:12.862Z,3.00
2022-08-22T13:52:32.060Z,2.92
2022-08-22T13:55:24.220Z,2.40
2022-08-22T14:01:06.041Z,2.72
2022-08-22T14:03:42.901Z,2.55
2022-08-22T14:06:37.946Z,3.22
2022-08-22T14:09:40.522Z,2.67
2022-08-22T14:12:13.951Z,2.88
2022-08-22T14:14:46.219Z,2.55
2022-08-22T14:17:20.755Z,2.70
2022-08-22T14:19:59.643Z,2.50
2022-08-22T14:22:34.946Z,2.42
2022-08-22T14:25:07.329Z,2.40
2022-08-22T14:27:39.544Z,2.00
2022-08-22T14:30:18.914Z,2.35
2022-08-22T14:33:17.621Z,2.78
2022-08-22T14:35:52.900Z,2.38
2022-08-22T14:38:36.639Z,2.60
2022-08-22T14:41:52.382Z,2.65
2022-08-22T14:44:29.398Z,2.97
2022-08-22T14:47:54.290Z,2.88
2022-08-22T14:49:59.675Z,2.55
2022-08-22T14:52:40.668Z,2.42
2022-08-22T14:55:10.220Z,2.25
2022-08-22T14:57:43.556Z,2.78
2022-08-22T15:00:12.452Z,2.60
2022-08-22T15:02:40.462Z,2.60
2022-08-22T15:05:19.765Z,2.55
2022-08-22T15:07:55.980Z,2.63
2022-08-22T15:10:22.645Z,2.25
2022-08-22T15:12:53.858Z,2.30
2022-08-22T15:15:49.788Z,2.25
2022-08-22T15:18:23.458Z,2.22
2022-08-22T15:21:01.857Z,2.42
2022-08-22T15:23:31.968Z,2.20
2022-08-22T15:26:19.131Z,2.30
2022-08-22T15:28:55.689Z,2.53
2022-08-22T15:31:23.012Z,2.35
2022-08-22T15:33:50.189Z,2.50
2022-08-22T15:36:22.517Z,2.20
2022-08-22T15:39:28.387Z,2.13
2022-08-22T15:41:56.760Z,2.30
2022-08-22T15:44:33.401Z,2.20
2022-08-22T15:47:10.878Z,2.35
2022-08-22T15:49:58.790Z,2.20
2022-08-22T15:52:30.248Z,2.33
2022-08-22T15:55:05.939Z,2.22
2022-08-22T15:57:47.373Z,2.00
2022-08-22T16:00:29.588Z,1.92
2022-08-22T16:03:01.655Z,2.35
2022-08-22T16:05:34.417Z,2.15
2022-08-22T16:08:06.769Z,2.05
2022-08-22T16:10:53.820Z,2.35
2022-08-22T16:13:26.574Z,2.20
2022-08-22T16:16:16.147Z,2.10
2022-08-22T16:18:43.495Z,2.15
2022-08-22T16:21:14.301Z,2.20
2022-08-22T16:23:49.878Z,2.20
2022-08-22T16:26:20.685Z,2.72
2022-08-22T16:29:00.502Z,2.40
2022-08-22T16:31:34.961Z,2.28
2022-08-22T16:34:20.293Z,2.40
2022-08-22T16:36:49.370Z,2.40
2022-08-22T16:39:21.854Z,2.40
2022-08-22T16:41:54.809Z,2.67
2022-08-22T16:44:30.520Z,2.10
2022-08-22T16:47:09.204Z,1.95
2022-08-22T16:49:53.344Z,2.28
2022-08-22T16:52:25.618Z,2.13
2022-08-22T16:55:01.313Z,2.10
2022-08-22T16:57:59.286Z,2.08
2022-08-22T17:00:38.280Z,2.50
2022-08-22T17:03:18.093Z,2.03
2022-08-22T17:06:06.170Z,2.15
2022-08-22T17:08:38.541Z,2.13
2022-08-22T17:11:15.355Z,2.10
2022-08-22T17:13:56.022Z,2.00
2022-08-22T17:16:52.054Z,2.17
2022-08-22T17:19:42.106Z,1.77
2022-08-22T17:22:29.044Z,1.95
2022-08-22T17:25:10.531Z,2.08
2022-08-22T17:27:40.172Z,2.08
2022-08-22T17:30:24.898Z,1.70
2022-08-22T17:33:06.558Z,1.92
2022-08-22T17:35:51.324Z,1.80
2022-08-22T17:38:46.387Z,1.55
2022-08-22T17:41:43.032Z,2.00
2022-08-22T17:44:09.431Z,1.90
2022-08-22T17:46:49.408Z,1.90
2022-08-22T17:49:15.835Z,1.77
2022-08-22T17:51:45.160Z,2.00
2022-08-22T17:54:20.928Z,1.77
2022-08-22T17:57:02.681Z,1.98
2022-08-22T17:59:40.175Z,1.80
2022-08-22T18:02:28.813Z,1.88
2022-08-22T18:05:02.876Z,2.20
2022-08-22T18:07:36.016Z,2.15
2022-08-22T18:10:19.601Z,2.22
2022-08-22T18:13:01.318Z,2.20
2022-08-22T18:15:51.702Z,2.03
2022-08-22T18:18:35.790Z,2.50
2022-08-22T18:21:22.674Z,2.30
2022-08-22T18:26:29.429Z,2.15
2022-08-22T18:29:11.143Z,2.15
2022-08-22T18:32:05.544Z,2.80
2022-08-22T18:34:47.066Z,2.53
2022-08-22T18:37:35.780Z,2.40
2022-08-22T18:40:08.378Z,2.30
2022-08-22T18:42:58.763Z,2.38
2022-08-22T18:45:44.638Z,2.35
2022-08-22T18:48:59.752Z,2.47
2022-08-22T18:51:38.385Z,2.28
2022-08-22T18:54:05.131Z,2.25
2022-08-22T18:56:31.490Z,2.80
2022-08-22T18:59:30.153Z,2.65
2022-08-22T19:02:21.537Z,2.63
2022-08-22T19:05:25.069Z,2.63
2022-08-22T19:08:08.165Z,2.47
2022-08-22T19:11:02.977Z,2.47
2022-08-22T19:13:38.625Z,2.55
2022-08-22T19:16:26.630Z,2.50
2022-08-22T19:18:57.448Z,2.63
2022-08-22T19:21:42.592Z,2.60
2022-08-22T19:24:17.803Z,2.60
2022-08-22T19:27:08.590Z,2.30
2022-08-22T19:29:34.949Z,2.47
2022-08-22T19:32:05.934Z,2.80
2022-08-22T19:34:40.786Z,2.50
2022-08-22T19:37:30.504Z,2.88
2022-08-22T19:40:00.738Z,3.22
2022-08-22T19:42:27.325Z,3.10
2022-08-22T19:44:53.855Z,2.78
2022-08-22T19:47:29.244Z,2.95
2022-08-22T19:50:16.912Z,3.30
2022-08-22T19:52:56.803Z,2.88
2022-08-22T19:55:38.657Z,2.92
2022-08-22T19:58:32.541Z,2.50
2022-08-22T20:01:09.841Z,2.55
2022-08-22T20:04:20.819Z,3.03
2022-08-22T20:07:18.876Z,2.47
2022-08-22T20:10:04.525Z,2.47
2022-08-22T20:12:41.026Z,2.30
2022-08-22T20:20:55.191Z,2.78
2022-08-22T20:23:31.112Z,2.35
2022-08-22T20:25:58.282Z,2.38
2022-08-22T20:28:36.609Z,2.08
2022-08-22T20:31:09.632Z,2.47
2022-08-22T20:33:39.808Z,2.45
2022-08-22T20:36:18.505Z,2.22
2022-08-22T20:38:59.952Z,2.55
2022-08-22T20:41:36.623Z,2.40
2022-08-22T20:44:29.438Z,2.70
2022-08-22T20:47:06.052Z,2.20
2022-08-22T20:49:41.978Z,2.13
2022-08-22T20:52:20.356Z,2.25
2022-08-22T20:54:57.888Z,2.40
2022-08-22T20:57:24.491Z,2.67
2022-08-22T21:00:15.117Z,2.30
2022-08-22T21:03:07.349Z,2.47
2022-08-22T21:05:41.100Z,2.50
2022-08-22T21:08:13.146Z,2.10
2022-08-22T21:10:59.700Z,2.70
2022-08-22T21:13:33.967Z,2.83
2022-08-22T21:16:31.244Z,2.60
2022-08-22T21:18:58.924Z,2.55
2022-08-22T21:21:28.905Z,2.40
2022-08-22T21:24:01.323Z,2.40
2022-08-22T21:26:33.364Z,2.28
2022-08-22T21:29:18.122Z,2.60
2022-08-22T21:31:48.534Z,2.42
2022-08-22T21:34:22.707Z,2.42
2022-08-22T21:36:54.818Z,2.33
2022-08-22T21:39:25.040Z,2.45
2022-08-22T21:41:59.092Z,2.60
2022-08-22T21:44:31.714Z,2.53
2022-08-22T21:47:13.843Z,2.50
2022-08-22T21:50:18.693Z,2.60
2022-08-22T21:53:10.308Z,2.70
2022-08-22T21:55:43.419Z,2.40
2022-08-22T21:58:30.986Z,2.83
2022-08-22T22:01:22.184Z,2.40
2022-08-22T22:03:51.762Z,2.50
2022-08-22T22:06:18.176Z,2.80
2022-08-22T22:08:44.633Z,2.97
2022-08-22T22:11:15.068Z,2.55
2022-08-22T22:13:42.294Z,2.60
2022-08-22T22:16:12.067Z,2.65
2022-08-22T22:18:39.748Z,2.53
2022-08-22T22:21:06.559Z,2.60
2022-08-22T22:23:33.054Z,2.63
2022-08-22T22:26:02.434Z,2.50
2022-08-22T22:28:34.869Z,2.10
2022-08-22T22:31:01.495Z,2.70
2022-08-22T22:33:31.528Z,2.50
2022-08-22T22:36:03.737Z,2.90
2022-08-22T22:38:30.191Z,2.60
2022-08-22T22:40:56.680Z,2.60
2022-08-22T22:43:23.140Z,2.63
2022-08-22T22:45:49.888Z,2.60
2022-08-22T22:48:24.134Z,3.20
2022-08-22T22:50:54.998Z,2.72
2022-08-22T22:53:38.621Z,2.50
2022-08-22T22:56:09.222Z,2.33
2022-08-22T22:58:36.266Z,2.47
2022-08-22T23:01:15.314Z,2.42
2022-08-22T23:03:42.577Z,2.40
2022-08-22T23:06:14.502Z,2.60
2022-08-22T23:08:41.473Z,2.30
2022-08-22T23:11:15.104Z,2.53
2022-08-22T23:13:42.761Z,2.40
2022-08-22T23:16:12.941Z,2.72
2022-08-22T23:18:40.015Z,2.50
2022-08-22T23:21:30.044Z,2.58
2022-08-22T23:23:58.415Z,2.65
2022-08-22T23:26:25.131Z,2.40
2022-08-22T23:28:51.860Z,2.33
2022-08-22T23:31:27.967Z,2.63
2022-08-22T23:33:55.559Z,2.53
2022-08-22T23:36:23.871Z,2.72
2022-08-22T23:38:51.585Z,2.72
2022-08-22T23:41:21.434Z,3.03
2022-08-22T23:43:51.553Z,2.67
2022-08-22T23:46:20.856Z,2.72
2022-08-22T23:48:47.855Z,2.45
2022-08-22T23:51:16.492Z,2.55
2022-08-22T23:53:44.257Z,2.30
2022-08-22T23:56:19.748Z,2.40
2022-08-22T23:58:47.000Z,2.30
